id job_id attempt runner_id status started stopped repo_id owner_id commit_sha is_fork_pull_request token_hash token_salt token_last_eight log_filename log_in_storage log_length log_size log_indexes log_expired created updated
4222 5097 1 3 4 1773097232 1773097232 6 5 c8076632765b6782be30f75613b7ab8e602662f4 0 8f562de4dcb2ed5ad6d4ceb58233678cc4d0c91e35bb323b0b ... Tw1sjOh89K c34c7a90 luoanwu/juhi-omni-knowledge-hub/7e/4222.log 1 5 486 008c02ea029e04e605 0 1773097232 1773097232 Edit Delete
3966 4828 1 3 1 1773021421 1773021431 6 5 c8076632765b6782be30f75613b7ab8e602662f4 0 3969c670b4f4f0975c701efe0640f46007b9f8ebee589f901a ... T5HFDYiCki ee3fc73d luoanwu/juhi-omni-knowledge-hub/7e/3966.log 1 1347 187148 008402e202e003f004aa06ea08bc0afa0bbe0efa0fb8129013 ... 0 1773021421 1773021431 Edit Delete
382 998 1 3 4 1771957510 1771957510 6 5 c75a655fbcae4e4a5f0f675e72c422c5c3ff5a72 0 34942feda24de2a5fe3bfd4bf2e80077ae78e10441d0d6afa3 ... 2iiLKM5WQU 6ac1f38b luoanwu/juhi-omni-knowledge-hub/7e/382.log 1 5 484 008802e6029a04e205 0 1771957510 1771957511 Edit Delete
3710 4572 1 3 4 1772945132 1772945132 6 5 0644185f66987a1e83b3b5f1a3cc462024a1f61f 0 17cc1b9daa126e146c19a080a0b53b10a1048b0a9074608bb0 ... vbGUVaNnhf 637d5add luoanwu/juhi-omni-knowledge-hub/7e/3710.log 1 5 486 008c02ea029e04e605 0 1772945132 1772945132 Edit Delete
3454 4316 1 3 4 1772868332 1772868332 6 5 0644185f66987a1e83b3b5f1a3cc462024a1f61f 0 e68825cacb5b18051e68904130430cdf8e605af0484400be2e ... cX9QPfK37i f63dcc36 luoanwu/juhi-omni-knowledge-hub/7e/3454.log 1 5 486 008c02ea029e04e605 0 1772868332 1772868332 Edit Delete
3198 4060 1 3 4 1772791532 1772791532 6 5 0644185f66987a1e83b3b5f1a3cc462024a1f61f 0 986c2adad89d0fd293a09fd109fac0b8b12901a98fcb3be3b7 ... Q8GmkStVFu 24a71084 luoanwu/juhi-omni-knowledge-hub/7e/3198.log 1 5 486 008c02ea029e04e605 0 1772791532 1772791532 Edit Delete
2942 3804 1 3 4 1772714732 1772714732 6 5 0644185f66987a1e83b3b5f1a3cc462024a1f61f 0 2bfd14efc6f2ce53b6934c988de077c4c006a55d6921a032e8 ... FxZtXfloeD 195a0994 luoanwu/juhi-omni-knowledge-hub/7e/2942.log 1 5 486 008c02ea029e04e605 0 1772714732 1772714732 Edit Delete
2686 3508 1 3 4 1772641232 1772641232 6 5 b587de1b3ae3f8f5baf51cb49d5990dd4b269be1 0 8d7baae002bedb6aa4f870714a47b27916bdb3c5eee2ca94cc ... CYra3EZQmc aa1b3643 luoanwu/juhi-omni-knowledge-hub/7e/2686.log 1 5 486 008c02ea029e04e605 0 1772641232 1772641233 Edit Delete
2430 3212 1 3 4 1772567733 1772567733 6 5 f217a4fbd657bd0a68d5cdda1409d995dce87607 0 262d4eb72ece8fa78f05155a42aac98e204e5a2039fcf2f457 ... o4FuwtZIlp 0a7f01ab luoanwu/juhi-omni-knowledge-hub/7e/2430.log 1 5 486 008c02ea029e04e605 0 1772567733 1772567733 Edit Delete
22654 26378 1 3 4 1777703140 1777703141 6 5 468c7319f39e251cdf8eb96c3aa63f4db200a7db 0 0f8f959527980ad78cc86bb49085a455b28b1577cfbeeef918 ... 3l96cEW63m abfd384f luoanwu/juhi-omni-knowledge-hub/7e/22654.log.zst 1 5 495 009e02fc02b004f805 0 1777703140 1777703141 Edit Delete
22398 26122 1 3 4 1777629040 1777629040 6 5 468c7319f39e251cdf8eb96c3aa63f4db200a7db 0 af70a7e6b03042cff3348dcbb359fe432c5a048acc7d4dabe0 ... yyxbUSqISX 4c6c8c51 luoanwu/juhi-omni-knowledge-hub/7e/22398.log.zst 1 5 495 009e02fc02b004f805 0 1777629040 1777629041 Edit Delete
22142 25829 1 3 4 1777572340 1777572340 6 5 468c7319f39e251cdf8eb96c3aa63f4db200a7db 0 4a7e402349c5a9144dbc3d5f2409a249c77f4a56e53780fdb8 ... GMVUXrWFMV 99f4118d luoanwu/juhi-omni-knowledge-hub/7e/22142.log.zst 1 5 495 009e02fc02b004f805 0 1777572340 1777572341 Edit Delete
21886 25540 1 3 4 1777511757 1777511758 6 5 468c7319f39e251cdf8eb96c3aa63f4db200a7db 0 79395db5e65c15d74641c79169e6d3f1e41c9392656e7afb9c ... oad9FYf6vb 30aba2fd luoanwu/juhi-omni-knowledge-hub/7e/21886.log.zst 1 5 495 009e02fc02b004f805 0 1777511757 1777511758 Edit Delete
2174 2956 1 3 4 1772490913 1772490913 6 5 f217a4fbd657bd0a68d5cdda1409d995dce87607 0 579518f38b81f6d669ca2b2e71a6da595d667d75fb72adb141 ... h4EbpJmeuL 8ec7a765 luoanwu/juhi-omni-knowledge-hub/7e/2174.log 1 5 486 008c02ea029e04e605 0 1772490913 1772490913 Edit Delete
21630 25259 1 3 1 1777440700 1777440702 6 5 468c7319f39e251cdf8eb96c3aa63f4db200a7db 0 ff3ac3064b8b0eb0285dd275a84bc4bd3541c63e7fb558b46e ... Ak7Lo38nHj 74a33284 luoanwu/juhi-omni-knowledge-hub/7e/21630.log.zst 1 70 17005 009602f402f203f0048006b207b008c009f40acc0bca0cda0d ... 0 1777440700 1777440702 Edit Delete
21374 24974 1 3 4 1777384850 1777384850 6 5 106c45ddee8406e0190ccbba4c3dcf6703cc6117 0 d1109589a20de4e205be0072fc7dc08e2cf5b7757b9c808667 ... EUE048d65y 5d677cd4 luoanwu/juhi-omni-knowledge-hub/7e/21374.log.zst 1 5 495 009e02fc02b004f805 0 1777384850 1777384850 Edit Delete
21118 24603 1 3 4 1777347629 1777347630 6 5 3fa41aea52e84435c16a79dd19c6775f93236a33 0 853981872ac399407bed9e3fe1ec37b0c7670ba22c07ecf20b ... BEKM4soGdb 53ea781f luoanwu/juhi-omni-knowledge-hub/7e/21118.log.zst 1 14 1113 009a02f802f6038605b2068a0788089809c40a9c0bea0ccc0e ... 0 1777347629 1777347630 Edit Delete
20862 24271 1 3 4 1777307451 1777307451 6 5 550a263d501f27c775e72e10c2abba3b0b0d963c 0 fd42ab28943f3e1328bb23c849c1c21a56aca6f01a900f9a99 ... SKBF7Ip3ld 15e3a6ad luoanwu/juhi-omni-knowledge-hub/7e/20862.log.zst 1 5 495 009e02fc02b004f805 0 1777307451 1777307452 Edit Delete
20606 23987 1 3 1 1777249864 1777249864 6 5 8b28a0af74c8801b122de4d42a95742e2302646a 0 ff3f34411e348406bb969ddb9aad8c77283fe21aff765c625c ... RlUDv25wYH 01cd3d2c luoanwu/juhi-omni-knowledge-hub/7e/20606.log.zst 1 29 10013 009602f402f20382059407d608d20abe0bbc0cb60d8437964c ... 0 1777249864 1777249864 Edit Delete
20350 23553 1 3 4 1777225258 1777225258 6 5 438f3d17a7553218c764ffef33c45904617acd90 0 0935f1762144c53d164081a59ea00e5f5ad37d70e1e8003cdd ... QEdYBHa2hq 9637f4b3 luoanwu/juhi-omni-knowledge-hub/7e/20350.log.zst 1 9 807 00b0028e038c049c05c6069e07ec08ce0a 0 1777225258 1777225259 Edit Delete
20094 23080 1 3 4 1777183851 1777183851 6 5 7b47df3186db279cfc071517a6c034aa213d926d 0 81ffdbd5b24d4a0dd2ead834448950568719f40ea92031475d ... HdwkMyA1ad c841a2e8 luoanwu/juhi-omni-knowledge-hub/7e/20094.log.zst 1 5 495 009e02fc02b004f805 0 1777183851 1777183851 Edit Delete
19838 22824 1 3 4 1777109450 1777109450 6 5 7b47df3186db279cfc071517a6c034aa213d926d 0 b330b7cfbf278b5496ceb64fb5d40e6f9176b86fb07998b89a ... QgjyadYaYQ ff9ce2f6 luoanwu/juhi-omni-knowledge-hub/7e/19838.log.zst 1 5 495 009e02fc02b004f805 0 1777109450 1777109451 Edit Delete
19582 22568 1 3 4 1777035050 1777035051 6 5 7b47df3186db279cfc071517a6c034aa213d926d 0 8d9678f15543d2484de67e95cdd9a79bfaa530b0d608163ac3 ... RtHUmIdhrR 8248f2dc luoanwu/juhi-omni-knowledge-hub/7e/19582.log.zst 1 5 495 009e02fc02b004f805 0 1777035050 1777035051 Edit Delete
19326 22312 1 3 4 1776960650 1776960651 6 5 7b47df3186db279cfc071517a6c034aa213d926d 0 f94f2cd93e027a41347d2ba43a46e368bda7c94cd989471893 ... tLJWOaEK2T 9c47a7f8 luoanwu/juhi-omni-knowledge-hub/7e/19326.log.zst 1 5 495 009e02fc02b004f805 0 1776960650 1776960651 Edit Delete
1918 2687 1 3 4 1772415912 1772415912 6 5 bf252f4083bdceceec242d821c3d37825d51f29f 0 6bf12aa67f13287d3771193c7cb915ca587a8cd7269c4cd548 ... V6zXqpN88T ec404522 luoanwu/juhi-omni-knowledge-hub/7e/1918.log 1 5 486 008c02ea029e04e605 0 1772415912 1772415912 Edit Delete
19070 22056 1 3 4 1776886251 1776886251 6 5 7b47df3186db279cfc071517a6c034aa213d926d 0 5e712e34b81c8dea876328f9c3b4080a45be2c0603a2082e4f ... BKmT2GhazZ 2e852d45 luoanwu/juhi-omni-knowledge-hub/7e/19070.log.zst 1 5 495 009e02fc02b004f805 0 1776886251 1776886251 Edit Delete
18814 21800 1 3 4 1776812151 1776812151 6 5 7b47df3186db279cfc071517a6c034aa213d926d 0 abff505a2d8c87ad16cb2099a9e8a9325d46f0649e48d2c073 ... HiH4j2b4Ze a4ff878b luoanwu/juhi-omni-knowledge-hub/7e/18814.log.zst 1 5 495 009e02fc02b004f805 0 1776812151 1776812152 Edit Delete
18558 21544 1 3 4 1776735351 1776735352 6 5 7b47df3186db279cfc071517a6c034aa213d926d 0 24b253dfdedbb652a7ebdc13c37b423a555f88cd411f4a49c1 ... RkMoEbT1yo c27fc9f7 luoanwu/juhi-omni-knowledge-hub/7e/18558.log.zst 1 5 495 009e02fc02b004f805 0 1776735352 1776735352 Edit Delete
18302 21288 1 3 4 1776660950 1776660951 6 5 7b47df3186db279cfc071517a6c034aa213d926d 0 407ea449e3e9b781dcb2e8e3e2ab372aaf0e7e18410e7becc3 ... upmK8iamaI c67452ad luoanwu/juhi-omni-knowledge-hub/7e/18302.log.zst 1 5 495 009e02fc02b004f805 0 1776660951 1776660951 Edit Delete
18046 21032 1 3 4 1776588950 1776588950 6 5 7b47df3186db279cfc071517a6c034aa213d926d 0 db8404a0add93101df1b58cbf0557f2434eb655db85508e894 ... NnwVqtDmtS 3e4abc2b luoanwu/juhi-omni-knowledge-hub/7e/18046.log.zst 1 5 495 009e02fc02b004f805 0 1776588950 1776588950 Edit Delete
17790 20776 1 3 4 1776514550 1776514551 6 5 7b47df3186db279cfc071517a6c034aa213d926d 0 98c8eefb48dc99bb0bb4e701c47a9c5e7f6f528972aaa73640 ... SsKICLQdyj 3c327ed1 luoanwu/juhi-omni-knowledge-hub/7e/17790.log.zst 1 5 495 009e02fc02b004f805 0 1776514550 1776514551 Edit Delete
17534 20520 1 3 4 1776440151 1776440151 6 5 7b47df3186db279cfc071517a6c034aa213d926d 0 07ba87d0b9fb72033987caf243f517ee722b1ce40d4a9666d2 ... qdccIBSGF0 48f4d497 luoanwu/juhi-omni-knowledge-hub/7e/17534.log.zst 1 5 495 009e02fc02b004f805 0 1776440151 1776440151 Edit Delete
17278 20236 1 3 4 1776378951 1776378951 6 5 fd1878b707f31b05ee314173ac91491adb28bc30 0 090b8d85ac6d8b4dbebc2cbcf507b312a509fb63b0350a8be3 ... C3zFwrT3fO 81720ee9 luoanwu/juhi-omni-knowledge-hub/7e/17278.log.zst 1 5 495 009e02fc02b004f805 0 1776378951 1776378951 Edit Delete
17022 19980 1 3 4 1776302150 1776302150 6 5 fd1878b707f31b05ee314173ac91491adb28bc30 0 95ec8ccec354c382618132ad7cc6bacc060d91635668ef1970 ... ewsH74k6bN df410358 luoanwu/juhi-omni-knowledge-hub/7e/17022.log.zst 1 5 495 009e02fc02b004f805 0 1776302150 1776302151 Edit Delete
16766 19717 1 3 2 1776236994 1776236997 6 5 fd1878b707f31b05ee314173ac91491adb28bc30 0 edb6d1065db70f8f2ee33a5615c72a77df248f387efeb4452d ... DDh6rCjgar 5cb47ca5 luoanwu/juhi-omni-knowledge-hub/7e/16766.log.zst 1 41 5315 00ac028a03dc04c0068408ce0aa00ce80db6108812f412f213 ... 0 1776236994 1776236997 Edit Delete
1662 2429 1 3 4 1772339712 1772339712 6 5 bf252f4083bdceceec242d821c3d37825d51f29f 0 ff1e4af1c30b15f713091cfa530417128933e5f8610af2d616 ... yRRMSXCfdl b58944e6 luoanwu/juhi-omni-knowledge-hub/7e/1662.log 1 5 486 008c02ea029e04e605 0 1772339712 1772339713 Edit Delete
16510 19401 1 3 4 1776180650 1776180650 6 5 551c4d2e9b42cd14481ec48c3b2e2526cab4d58c 0 6170da1285272fb63f8c930baaf21f7534c1df0f93f0d35771 ... eQaDLFXKYm eb769cc7 luoanwu/juhi-omni-knowledge-hub/7e/16510.log.zst 1 5 495 009e02fc02b004f805 0 1776180650 1776180651 Edit Delete
16254 19044 1 3 4 1776126351 1776126351 6 5 d2c68b13960de626f7a8d496bf1977d263eb7931 0 2d3c5245c4df3351b7668f54dda2a85a194b16e888bd08df50 ... SfIFFgafze c40e9881 luoanwu/juhi-omni-knowledge-hub/7e/16254.log.zst 1 5 495 009e02fc02b004f805 0 1776126351 1776126352 Edit Delete
15998 18760 1 3 2 1776066084 1776066104 6 5 d2c68b13960de626f7a8d496bf1977d263eb7931 0 f5725632f9369334560917ef0b88bf3d947305078c5d0dfe8b ... wyaDlp5mTu 724893b1 luoanwu/juhi-omni-knowledge-hub/7e/15998.log.zst 1 128 14866 00a2028003fe038e05c8068809da0a960cd80eaa10e811ac14 ... 0 1776066084 1776066105 Edit Delete
15742 18477 1 3 4 1776008451 1776008452 6 5 2e3188c85a6cfc38ac7d3643b1cbbfc2e3e850d0 0 79254e68a6b06de6f8bd8c6556d1f3f515f390bc13c3db4069 ... KYmypJukGn 66d0a63c luoanwu/juhi-omni-knowledge-hub/7e/15742.log.zst 1 5 495 009e02fc02b004f805 0 1776008451 1776008452 Edit Delete
15486 18193 1 3 4 1775947250 1775947251 6 5 9d69e1960ec649a49c0c6f307c0fc197f47ee4c4 0 82f3591ee82fa04850bf9c3ad59cd08b7f6bc708b70976b3b7 ... 86kbWzcpvh c9bc6469 luoanwu/juhi-omni-knowledge-hub/7e/15486.log.zst 1 5 495 009e02fc02b004f805 0 1775947250 1775947251 Edit Delete
15230 17937 1 3 4 1775870751 1775870751 6 5 9d69e1960ec649a49c0c6f307c0fc197f47ee4c4 0 1668abd6d9113044a21d927d03ed58c48d152c6264f0e8df32 ... HGEVcglK2e 3f11cc2d luoanwu/juhi-omni-knowledge-hub/7e/15230.log.zst 1 5 495 009e02fc02b004f805 0 1775870751 1775870751 Edit Delete
14974 17681 1 3 4 1775796319 1775796319 6 5 9d69e1960ec649a49c0c6f307c0fc197f47ee4c4 0 7933338aeebaaea27f18cbbf61090bfd94d9a216037cd71ce7 ... v8JY8TCtfz 33b4b7bc luoanwu/juhi-omni-knowledge-hub/7e/14974.log.zst 1 5 495 009e02fc02b004f805 0 1775796319 1775796320 Edit Delete
14718 17425 1 3 4 1775721918 1775721918 6 5 9d69e1960ec649a49c0c6f307c0fc197f47ee4c4 0 29d9e50fd678e2065262d8c73a3d33fef2a15568b2da4e0e70 ... piP04KQN6H 3c17c81f luoanwu/juhi-omni-knowledge-hub/7e/14718.log.zst 1 5 495 009e02fc02b004f805 0 1775721918 1775721918 Edit Delete
14462 17169 1 3 4 1775647519 1775647519 6 5 9d69e1960ec649a49c0c6f307c0fc197f47ee4c4 0 26cfba1b4ace1da33d48978490009d7fa76740af5cf99cba04 ... vpDAFsnrOu 69a94234 luoanwu/juhi-omni-knowledge-hub/7e/14462.log.zst 1 5 495 009e02fc02b004f805 0 1775647519 1775647519 Edit Delete
14206 16913 1 3 4 1775573119 1775573119 6 5 9d69e1960ec649a49c0c6f307c0fc197f47ee4c4 0 98fb49d27fc66d53a2ba06e7563008f70f83f8f71fa4a4babd ... CkufctX4Fk b5fccd53 luoanwu/juhi-omni-knowledge-hub/7e/14206.log.zst 1 5 495 009e02fc02b004f805 0 1775573119 1775573119 Edit Delete
1406 2173 1 3 4 1772262912 1772262912 6 5 bf252f4083bdceceec242d821c3d37825d51f29f 0 4f00fa52f61aeccf9f12a56907dc322b31ebd6a37a523faa3a ... w46uLv4NbM e56ee75d luoanwu/juhi-omni-knowledge-hub/7e/1406.log 1 5 486 008c02ea029e04e605 0 1772262912 1772262913 Edit Delete
13950 16657 1 3 4 1775498719 1775498719 6 5 9d69e1960ec649a49c0c6f307c0fc197f47ee4c4 0 0f09787fd840a02f1260bd45f9554d73d1dab0c6b444c33163 ... dFh4mTZJVq ad91619d luoanwu/juhi-omni-knowledge-hub/7e/13950.log.zst 1 5 495 009e02fc02b004f805 0 1775498719 1775498719 Edit Delete
13694 16401 1 3 4 1775426719 1775426719 6 5 9d69e1960ec649a49c0c6f307c0fc197f47ee4c4 0 0d38645263e9a9e890e9b2b6475e4bd082a53351d5d9d734db ... RrdSUVrxc5 72f7f571 luoanwu/juhi-omni-knowledge-hub/7e/13694.log.zst 1 5 495 009e02fc02b004f805 0 1775426719 1775426719 Edit Delete
13438 16145 1 3 4 1775349919 1775349920 6 5 9d69e1960ec649a49c0c6f307c0fc197f47ee4c4 0 5fa3d26b1e4f0ceaba8fec51dcac970575c372b2d664a14608 ... fgQPkapKWU c5f62e12 luoanwu/juhi-omni-knowledge-hub/7e/13438.log.zst 1 5 495 009e02fc02b004f805 0 1775349919 1775349920 Edit Delete